createdAt,value
2023-04-08T00:05:23.806Z,100
2023-04-08T00:11:17.896Z,100
2023-04-08T00:17:10.139Z,100
2023-04-08T00:23:03.222Z,100
2023-04-08T00:28:55.015Z,100
2023-04-08T00:34:47.290Z,100
2023-04-08T00:40:38.501Z,100
2023-04-08T00:46:30.634Z,100
2023-04-08T00:52:22.974Z,100
2023-04-08T00:58:15.140Z,100
2023-04-08T01:04:07.301Z,100
2023-04-08T01:09:59.728Z,100
2023-04-08T01:15:53.976Z,100
2023-04-08T01:21:46.547Z,100
2023-04-08T01:27:39.137Z,100
2023-04-08T01:33:30.963Z,100
2023-04-08T01:39:23.854Z,100
2023-04-08T01:45:18.402Z,100
2023-04-08T01:51:11.210Z,100
2023-04-08T01:57:03.588Z,100
2023-04-08T02:02:56.329Z,100
2023-04-08T02:08:49.626Z,100
2023-04-08T02:14:43.955Z,100
2023-04-08T02:20:36.677Z,100
2023-04-08T02:26:29.679Z,100
2023-04-08T02:32:20.975Z,100
2023-04-08T02:38:13.928Z,100
2023-04-08T02:44:06.250Z,100
2023-04-08T02:49:59.286Z,100
2023-04-08T02:55:51.782Z,100
2023-04-08T03:01:44.353Z,100
2023-04-08T03:07:36.749Z,100
2023-04-08T03:13:28.592Z,100
2023-04-08T03:19:21.197Z,100
2023-04-08T03:25:12.851Z,100
2023-04-08T03:31:05.107Z,100
2023-04-08T03:36:57.298Z,100
2023-04-08T03:42:49.499Z,100
2023-04-08T03:48:41.779Z,100
2023-04-08T03:54:33.904Z,100
2023-04-08T04:00:25.927Z,100
2023-04-08T04:06:18.461Z,100
2023-04-08T04:12:11.648Z,100
2023-04-08T04:18:04.287Z,100
2023-04-08T11:51:50.000Z,82.7
2023-04-08T12:04:01.369Z,77.9
2023-04-08T12:10:06.834Z,77.4
2023-04-08T12:16:26.231Z,78.4
2023-04-08T12:29:39.084Z,79.6
2023-04-08T12:35:50.906Z,79.3
2023-04-08T12:42:00.650Z,81.4
2023-04-08T12:48:26.474Z,79.9
2023-04-08T12:54:36.249Z,80.5
2023-04-08T13:00:47.624Z,80.8
2023-04-08T13:06:58.923Z,81
2023-04-08T13:13:14.245Z,78.5
2023-04-08T13:19:37.295Z,77.6
2023-04-08T13:25:48.272Z,74.8
2023-04-08T13:37:47.593Z,75.5
2023-04-08T13:43:51.719Z,72.9
2023-04-08T13:50:04.813Z,70.7
2023-04-08T13:55:57.736Z,72.8
2023-04-08T14:02:11.672Z,71.3
2023-04-08T14:08:34.047Z,70.6
2023-04-08T14:14:46.012Z,70.1
2023-04-08T14:21:01.195Z,70.5
2023-04-08T14:27:00.215Z,71.8
2023-04-08T14:32:55.498Z,72.8
2023-04-08T14:39:10.255Z,73.1
2023-04-08T14:45:17.760Z,73.8
2023-04-08T14:51:19.536Z,74.6
2023-04-08T14:57:22.781Z,74.6
2023-04-08T15:03:55.889Z,75.6
2023-04-08T15:09:50.626Z,75.1
2023-04-08T15:15:48.451Z,75
2023-04-08T15:21:57.367Z,75.5
2023-04-08T15:28:01.488Z,75.1
2023-04-08T15:33:58.539Z,74
2023-04-08T15:40:05.594Z,74.6
2023-04-08T15:46:14.648Z,72.7
2023-04-08T15:52:08.952Z,74.8
2023-04-08T15:58:06.051Z,74.5
2023-04-08T16:03:57.240Z,74.3
2023-04-08T16:10:09.604Z,74.8
2023-04-08T16:16:31.908Z,74
2023-04-08T16:23:03.780Z,75
2023-04-08T16:29:23.206Z,75.2
2023-04-08T16:35:26.126Z,74.7
2023-04-08T16:41:34.763Z,75.5
2023-04-08T17:00:46.637Z,75.5
2023-04-08T17:06:43.653Z,76.2
2023-04-08T17:12:47.159Z,75.2
2023-04-08T17:18:50.378Z,74.7
2023-04-08T17:24:53.541Z,74.5
2023-04-08T17:30:49.546Z,75.6
2023-04-08T17:36:59.724Z,75.9
2023-04-08T17:49:07.939Z,76.4
2023-04-08T17:54:59.381Z,76.2
2023-04-08T18:00:51.401Z,76.7
2023-04-08T18:06:57.638Z,79.6
2023-04-08T18:13:15.064Z,80
2023-04-08T18:19:06.627Z,80.4
2023-04-08T18:25:12.032Z,82
2023-04-08T18:31:04.648Z,83
2023-04-08T18:36:59.179Z,82.2
2023-04-08T18:42:51.192Z,83.6
2023-04-08T18:48:42.974Z,84.4
2023-04-08T18:54:34.802Z,83.9
2023-04-08T19:00:28.869Z,85.1
2023-04-08T19:06:20.984Z,86.7
2023-04-08T19:12:13.638Z,86.7
2023-04-08T19:18:05.771Z,86.4
2023-04-08T19:23:57.241Z,86.4
2023-04-08T19:29:49.031Z,88.9
2023-04-08T19:35:41.154Z,89.2
2023-04-08T19:41:33.487Z,90.7
2023-04-08T19:47:25.257Z,89.8
2023-04-08T19:53:17.438Z,91.2
2023-04-08T19:59:09.605Z,91.3
2023-04-08T20:05:02.550Z,90.2
2023-04-08T20:10:54.726Z,91.7
2023-04-08T20:16:46.539Z,92.2
2023-04-08T20:22:38.069Z,92.4
2023-04-08T20:28:30.417Z,92.4
2023-04-08T20:34:22.709Z,92.9
2023-04-08T20:40:15.883Z,93.3
2023-04-08T20:46:10.094Z,94
2023-04-08T20:52:02.497Z,93.9
2023-04-08T20:57:55.098Z,94.3
2023-04-08T21:03:49.277Z,93.7
2023-04-08T21:09:42.082Z,96.6
2023-04-08T21:15:34.535Z,95.5
2023-04-08T21:21:26.297Z,95.8
2023-04-08T21:27:19.179Z,96.5
2023-04-08T21:33:11.150Z,96
2023-04-08T21:39:04.004Z,96.1
2023-04-08T21:44:56.235Z,97.4
2023-04-08T21:50:50.470Z,95.9
2023-04-08T21:56:42.353Z,96.1
2023-04-08T22:02:35.193Z,96.3
2023-04-08T22:08:27.315Z,96.9
2023-04-08T22:14:19.158Z,96.7
2023-04-08T22:20:11.367Z,96.5
2023-04-08T22:26:03.226Z,97.6
2023-04-08T22:31:56.260Z,96.4
2023-04-08T22:37:48.687Z,98.3
2023-04-08T22:43:40.504Z,99.5
2023-04-08T22:49:32.108Z,100
2023-04-08T22:55:23.734Z,99.2
2023-04-08T23:01:15.553Z,100
2023-04-08T23:07:08.309Z,99.7
2023-04-08T23:13:00.501Z,100
2023-04-08T23:18:53.272Z,100
2023-04-08T23:24:44.877Z,100
2023-04-08T23:30:37.245Z,100
2023-04-08T23:36:28.808Z,100
2023-04-08T23:42:21.032Z,100
2023-04-08T23:48:12.445Z,100
2023-04-08T23:54:06.830Z,100
